Terminal Aerodrome Forecast
Issued by NWS Tampa Bay Area, FL

Home | Current Version | Previous Version | Text Only | Print | Product List | Glossary On
Versions: 1 2 3 4 5 6 7 8 9 10 11 12 13 14 15 16 17 18 19
928
FTUS42 KTBW 102320
TAFSRQ
TAF
KSRQ 102320Z 1100/1124 34008KT P6SM SKC
     FM110200 VRB03KT P6SM SKC
     FM111500 02007KT P6SM FEW250=

USA.gov is the U.S. government's official web portal to all federal, state and local government web resources and services.